Eagle County Regional Airport
KEGE : now visible

Airfield :











YOU CAN JOIN US ON...

 
LOGIN :

Register | Disclaimer

   EN    FR    IT 

 









Legend :    VFR   Marginal VFR   IFR   Intensive IFR   Very Intensive IFR
Visi :
Ceiling :
>= 8 km
>= 3000ft
5 to 8 km
1000 to 3000 ft
1500m to 5 km
500 to 1000 ft
800 to 1500m
200 to 500 ft
< 800m
< 200 ft
Symbols :   Thunderstorms  Fog  Heavy snow  Heavy precipitations  Wind > 20 kt






- Airport Elevation : 6548 ft
- IATA code : EGE


KEGE - Eagle County Regional

CURRENT METAR :
  • 060456Z AUTO VRB03KT 10SM CLR 19/04 A3021 RMK AO2 SLP161 T01940044 PNO $

EXPIRED METARs :
  • 060356Z AUTO 09005KT 10SM CLR 21/04 A3019 RMK AO2 SLP157 T02060044 PNO $
  • 060256Z AUTO 09008KT 10SM CLR 23/04 A3017 RMK AO2 SLP149 6//// T02330044 55000 PNO $

TAF KEGE
Valid from the 06 at 00:00 until the 07 at 00:00 UTC


052332Z 0600/0624 33010G20KT P6SM VCSH SCT120
FM060100 15005KT P6SM FEW120
FM060500 VRB03KT P6SM SKC
FM061900 24006KT P6SM SKC
KZDV FIR / North America



MET'MAP, your aeronautical weather chart ! - Copyright ORBIFLY December 2007 - Disclaimer

ORBIFLY MET'MAP TEAM :

Programming & Development : Alexandra Zaïnal
Concept & original design : Baudouin d'Aumeries
Assistance for programming : Marc-Olivier Méhu
Technical & hardware support : Manuel Goepfert

Contact : metmap@orbifly.com




SOURCES & CREDITS :

   NOAA       Earth
Advisory